Pagina principale
METAR-TAF:

METAR-TAF

Aeroporti :

Aeroporto di Friedrichshafen

Friedrichshafen, Germania

latitudine: 47-40N, longitudine: 009-31E, altezza: 416 m

Osservazione

Il bollettino è stato emesso 28 minuti fa, alle 17:20 UTC
Vento 10 kt da nord-est
Temperature 18°C
Umidità 39%
Pressione 1018 hPa
Visibilità 10 km o più

METAR: EDNY 311720Z AUTO 04010KT 9999 // NCD 18/04 Q1018

Ora: 19:48 (17:48 UTC)

Previsione

Il bollettino è stato emesso 48 minuti fa, alle 17:00 UTC
Previsione valida dal 31 alle 18 UTC al 01 alle 18 UTC
Vento 7 kt da nord/nord-est
Visibilità 10 km o più
nessuna nube inferiore a 1500 m e nessun cumulonembo
Evoluzione graduale
dal 01 alle 09 UTC al 01 alle 11 UTC
Vento 12 kt da nord/nord-est
Evoluzione graduale
dal 01 alle 17 UTC al 01 alle 18 UTC
Vento 7 kt da nord/nord-est

TAF: EDNY 311700Z 3118/0118 03007KT CAVOK BECMG 0109/0111 03012KT BECMG 0117/0118 03007KT

Osservazioni e previsioni meteorologiche di più di 4000 aeroporti (messaggi METAR e TAF).

Le stazioni disponibili sono rappresentate dai dischi gialli e rossi sulla carta.

Puntare il mouse per vedere il nome della stazione.

Clicca sopra per visualizzare le osservazioni e previsioni meteorologiche.

Per cambiare la mappa : fare clic sui pulsanti verdi con una croce nera per ingrandire, il pulsante verde con un trattino per diminuire, o sulla freccia verde per le mappe adiacenti.


METAR-TAF: